Saturday, December 15, 2018, 1:19 PM EST
Back to Local

KRKD, Rockland, Knox County Regional Airport

Location: Owls Head, ME, United States Lat: 44.067
Local Time: 1:19 PM EST (18:19 GMT) Lon: -69.1
Time Zone: US/Eastern Elev: 55 ft

Show me the last for .
Show Decoded

2018-12-15 12:56 METAR KRKD 151756Z AUTO VRB06KT 10SM FEW044 07/M02 A3015 RMK AO2 SLP213
                 T00671022 10094 20022 53006 =
2018-12-15 11:56 METAR KRKD 151656Z AUTO 32007G16KT 260V350 10SM CLR 07/00 A3014 RMK AO2 SLP210
                 T00720000 =
2018-12-15 10:56 METAR KRKD 151556Z AUTO 31010G19KT 10SM CLR 09/01 A3014 RMK AO2 SLP207 T00940011
                 =
2018-12-15 09:56 METAR KRKD 151456Z AUTO 30009G18KT 10SM CLR 09/03 A3013 RMK AO2 SLP206 T00890028
                 51012 =
2018-12-15 08:56 METAR KRKD 151356Z AUTO 25007KT 10SM CLR 05/03 A3013 RMK AO2 SLP203 T00500033 =
2018-12-15 07:56 METAR KRKD 151256Z AUTO 25005KT 10SM CLR 03/03 A3012 RMK AO2 SLP200 T00330028 =
2018-12-15 06:56 METAR KRKD 151156Z AUTO 28006KT 10SM CLR 03/03 A3010 RMK AO2 SLP194 T00330028
                 10067 20028 53008 =
2018-12-15 05:56 METAR KRKD 151056Z AUTO 29006KT 10SM FEW055 04/03 A3009 RMK AO2 SLP191 T00390033
                 =
2018-12-15 04:56 METAR KRKD 150956Z AUTO 27007KT 10SM CLR 04/03 A3008 RMK AO2 SLP187 T00440033 =
2018-12-15 04:24 METAR KRKD 150924Z AUTO 26008KT 10SM FEW009 05/04 A3007 RMK AO2 =
2018-12-15 03:56 METAR KRKD 150856Z AUTO 25010KT 10SM OVC009 06/04 A3007 RMK AO2 SLP186 T00560044
                 58014 =
2018-12-15 02:56 METAR KRKD 150756Z AUTO 24013G17KT 10SM OVC007 06/05 A3009 RMK AO2 SLP190
                 T00610050 =
2018-12-15 01:56 METAR KRKD 150656Z AUTO 24012KT 10SM OVC007 07/06 A3011 RMK AO2 SLP197 T00670056
                 =
2018-12-15 00:56 METAR KRKD 150556Z AUTO 22013G19KT 10SM OVC009 07/06 A3012 RMK AO2 SLP200
                 T00670056 10067 20050 57031 =
2018-12-15 00:23 METAR KRKD 150523Z AUTO 23009KT 10SM OVC009 07/05 A3014 RMK AO2 CIG 007V013 =
2018-12-14 23:56 METAR KRKD 150456Z AUTO 22012G22KT 10SM OVC011 07/05 A3014 RMK AO2 CIG 009V014
                 SLP210 T00670050 400671072 =
2018-12-14 23:31 METAR KRKD 150431Z AUTO 21010G22KT 10SM BKN013 OVC019 06/04 A3016 RMK AO2 =
2018-12-14 22:56 METAR KRKD 150356Z AUTO 22011G16KT 10SM BKN021 OVC040 06/04 A3018 RMK AO2 SLP221
                 T00610039 =
2018-12-14 21:56 METAR KRKD 150256Z AUTO 22010KT 10SM BKN041 OVC060 06/03 A3021 RMK AO2 SLP231
                 T00560033 57042 =
2018-12-14 20:56 METAR KRKD 150156Z AUTO 22009KT 10SM SCT060 BKN070 06/03 A3025 RMK AO2 SLP246
                 T00560028 =
2018-12-14 19:56 METAR KRKD 150056Z AUTO 21010G14KT 10SM SCT050 05/02 A3029 RMK AO2 SLP259
                 T00500022 =
2018-12-14 18:56 METAR KRKD 142356Z AUTO 20006KT 10SM OVC050 05/02 A3033 RMK AO2 SLP273 T00500022
                 10050 20033 57016 =
2018-12-14 17:56 METAR KRKD 142256Z AUTO 21009G15KT 10SM FEW017 OVC050 05/02 A3034 RMK AO2 SLP277
                 T00500022 =
2018-12-14 16:56 METAR KRKD 142156Z AUTO 21006KT 10SM SCT015 BKN048 04/02 A3037 RMK AO2 SLP285
                 T00390017 =
2018-12-14 15:56 METAR KRKD 142056Z AUTO 21004KT 10SM CLR 04/01 A3038 RMK AO2 SLP289 T00390011
                 56017 =
2018-12-14 14:56 METAR KRKD 141956Z AUTO 22006KT 10SM CLR 04/01 A3039 RMK AO2 SLP294 T00390011 =
2018-12-14 14:26 METAR KRKD 141926Z AUTO 22006KT 10SM FEW016 BKN041 04/01 A3040 RMK AO2 =
2018-12-14 13:56 METAR KRKD 141856Z AUTO 24008KT 10SM BKN018 OVC041 04/01 A3041 RMK AO2 SLP300
                 T00440011 =

Support USWX by starting your Amazon purchase here.